createdAt,value
2023-04-06T00:00:15.611Z,16.83
2023-04-06T00:01:17.120Z,14.27
2023-04-06T00:02:18.740Z,18.20
2023-04-06T00:03:20.522Z,17.23
2023-04-06T00:04:22.115Z,14.20
2023-04-06T00:05:24.002Z,16.40
2023-04-06T00:06:25.478Z,17.33
2023-04-06T00:07:27.113Z,13.20
2023-04-06T00:08:28.698Z,17.00
2023-04-06T00:09:30.202Z,15.90
2023-04-06T00:10:31.788Z,15.80
2023-04-06T00:11:33.258Z,15.85
2023-04-06T00:12:34.791Z,16.65
2023-04-06T00:13:36.241Z,17.77
2023-04-06T00:14:37.695Z,15.27
2023-04-06T00:15:39.247Z,16.30
2023-04-06T00:16:40.722Z,19.40
2023-04-06T00:17:42.305Z,17.27
2023-04-06T00:18:43.953Z,15.63
2023-04-06T00:19:45.397Z,18.98
2023-04-06T00:20:46.865Z,16.42
2023-04-06T00:21:48.445Z,16.33
2023-04-06T00:22:49.995Z,15.77
2023-04-06T00:23:51.568Z,17.13
2023-04-06T00:24:53.007Z,14.30
2023-04-06T00:25:54.464Z,17.60
2023-04-06T00:26:56.260Z,15.60
2023-04-06T00:27:57.788Z,16.92
2023-04-06T00:28:59.972Z,18.45
2023-04-06T00:30:01.464Z,16.45
2023-04-06T00:31:02.937Z,17.70
2023-04-06T00:32:04.491Z,19.27
2023-04-06T00:33:06.291Z,16.98
2023-04-06T00:34:07.847Z,19.05
2023-04-06T00:35:09.730Z,17.20
2023-04-06T00:36:11.433Z,16.55
2023-04-06T00:37:13.186Z,17.58
2023-04-06T00:38:16.061Z,15.35
2023-04-06T00:39:19.118Z,16.33
2023-04-06T00:40:22.421Z,18.02
2023-04-06T00:41:23.958Z,15.38
2023-04-06T00:42:28.954Z,18.98
2023-04-06T00:43:30.512Z,20.45
2023-04-06T00:44:32.887Z,16.50
2023-04-06T00:45:34.506Z,23.13
2023-04-06T00:46:36.101Z,20.30
2023-04-06T00:47:37.849Z,16.92
2023-04-06T00:48:40.133Z,18.10
2023-04-06T00:49:41.623Z,21.08
2023-04-06T00:50:43.341Z,17.77
2023-04-06T00:51:44.902Z,23.55
2023-04-06T00:52:46.720Z,18.10
2023-04-06T00:53:48.213Z,18.50
2023-04-06T00:54:51.536Z,17.70
2023-04-06T00:55:53.018Z,16.25
2023-04-06T00:56:54.713Z,19.85
2023-04-06T00:57:59.430Z,19.95
2023-04-06T00:59:01.405Z,17.15
2023-04-06T01:00:03.909Z,22.48
2023-04-06T01:01:06.117Z,16.60
2023-04-06T01:02:08.902Z,16.65
2023-04-06T01:03:10.586Z,19.65
2023-04-06T01:04:12.133Z,18.65
2023-04-06T01:05:13.677Z,17.35
2023-04-06T01:06:15.409Z,15.50
2023-04-06T01:07:16.860Z,16.00
2023-04-06T01:08:18.295Z,17.52
2023-04-06T01:09:19.844Z,16.80
2023-04-06T01:10:29.360Z,17.65
2023-04-06T01:11:30.940Z,21.15
2023-04-06T01:12:32.474Z,20.40
2023-04-06T01:13:34.013Z,19.42
2023-04-06T01:14:35.647Z,20.30
2023-04-06T01:15:39.994Z,16.63
2023-04-06T01:16:42.735Z,17.92
2023-04-06T01:17:44.394Z,21.05
2023-04-06T01:18:45.911Z,18.55
2023-04-06T01:19:50.159Z,17.80
2023-04-06T01:20:51.685Z,20.02
2023-04-06T01:21:54.312Z,18.15
2023-04-06T01:22:55.802Z,21.50
2023-04-06T01:23:57.273Z,20.40
2023-04-06T01:24:58.822Z,17.38
2023-04-06T01:26:00.331Z,19.33
2023-04-06T01:27:02.312Z,16.08
2023-04-06T01:28:04.028Z,20.77
2023-04-06T01:29:06.004Z,16.27
2023-04-06T01:31:10.455Z,17.02
2023-04-06T01:32:11.970Z,15.55
2023-04-06T01:33:13.526Z,18.73
2023-04-06T01:34:15.536Z,16.50
2023-04-06T01:35:17.319Z,19.15
2023-04-06T01:36:19.738Z,18.63
2023-04-06T01:37:21.330Z,18.33
2023-04-06T01:38:22.854Z,21.75
2023-04-06T01:39:24.424Z,16.73
2023-04-06T01:40:25.937Z,18.10
2023-04-06T01:41:27.412Z,18.63
2023-04-06T01:42:29.079Z,19.83
2023-04-06T01:43:30.778Z,21.50
2023-04-06T01:44:32.329Z,19.05
2023-04-06T01:45:33.800Z,17.85
2023-04-06T01:46:35.515Z,19.73
2023-04-06T01:47:37.091Z,16.50
2023-04-06T01:48:38.612Z,19.33
2023-04-06T01:49:40.436Z,16.15
2023-04-06T01:50:42.131Z,15.40
2023-04-06T01:51:43.583Z,16.52
2023-04-06T01:52:45.570Z,16.95
2023-04-06T01:53:47.036Z,20.48
2023-04-06T01:54:48.488Z,22.27
2023-04-06T01:55:50.323Z,19.50
2023-04-06T01:56:53.471Z,19.38
2023-04-06T01:57:54.990Z,19.88
2023-04-06T01:58:57.205Z,18.95
2023-04-06T01:59:58.688Z,17.50
2023-04-06T02:01:00.278Z,16.58
2023-04-06T02:02:01.869Z,18.77
2023-04-06T02:03:03.591Z,18.15
2023-04-06T02:04:05.250Z,17.52
2023-04-06T02:05:07.115Z,17.50
2023-04-06T02:06:08.677Z,15.05
2023-04-06T02:07:10.314Z,14.43
2023-04-06T02:08:11.771Z,18.02
2023-04-06T02:09:13.275Z,19.17
2023-04-06T02:10:15.084Z,18.48
2023-04-06T02:11:16.571Z,15.85
2023-04-06T02:12:18.063Z,18.48
2023-04-06T02:13:19.562Z,17.65
2023-04-06T02:14:21.093Z,15.40
2023-04-06T02:15:22.579Z,16.58
2023-04-06T02:16:24.122Z,17.73
2023-04-06T02:17:25.671Z,16.65
2023-04-06T02:18:27.178Z,15.25
2023-04-06T02:19:28.902Z,19.25
2023-04-06T02:20:30.757Z,20.48
2023-04-06T02:21:32.228Z,18.42
2023-04-06T02:22:33.684Z,20.02
2023-04-06T02:23:35.255Z,20.33
2023-04-06T02:24:37.476Z,20.10
2023-04-06T02:25:39.078Z,19.13
2023-04-06T02:26:40.738Z,21.85
2023-04-06T02:27:42.199Z,20.98
2023-04-06T02:28:43.641Z,20.90
2023-04-06T02:29:45.115Z,19.95
2023-04-06T02:30:47.546Z,21.52
2023-04-06T02:31:49.068Z,19.50
2023-04-06T02:32:50.741Z,20.00
2023-04-06T02:33:52.240Z,21.50
2023-04-06T02:34:53.800Z,23.23
2023-04-06T02:35:55.388Z,28.38
2023-04-06T02:36:56.895Z,24.27
2023-04-06T02:37:58.410Z,23.30
2023-04-06T02:38:59.879Z,27.17
2023-04-06T02:40:01.431Z,26.17
2023-04-06T02:41:02.950Z,23.65
2023-04-06T02:42:04.559Z,22.48
2023-04-06T02:43:06.233Z,27.13
2023-04-06T02:44:09.733Z,27.08
2023-04-06T02:45:11.412Z,26.40
2023-04-06T02:46:12.917Z,32.17
2023-04-06T02:47:14.447Z,31.13
2023-04-06T02:48:16.177Z,24.73
2023-04-06T02:49:17.685Z,26.70
2023-04-06T02:50:19.184Z,28.52
2023-04-06T02:51:21.097Z,26.90
2023-04-06T02:52:22.605Z,24.23
2023-04-06T02:53:24.142Z,25.13
2023-04-06T02:54:25.824Z,23.73
2023-04-06T02:55:27.469Z,27.90
2023-04-06T02:56:28.945Z,22.13
2023-04-06T02:57:30.401Z,27.23
2023-04-06T02:58:31.891Z,27.27
2023-04-06T02:59:33.428Z,28.13
2023-04-06T03:00:34.987Z,36.53
2023-04-06T03:01:37.108Z,27.33
2023-04-06T03:03:40.321Z,31.60
2023-04-06T03:04:41.913Z,27.92
2023-04-06T03:05:43.387Z,26.45
2023-04-06T03:06:44.838Z,24.77
2023-04-06T03:07:46.332Z,27.33
2023-04-06T03:08:48.222Z,29.02
2023-04-06T03:09:49.715Z,26.98
2023-04-06T03:10:51.569Z,25.92
2023-04-06T03:11:53.110Z,25.48
2023-04-06T03:12:54.571Z,28.48
2023-04-06T03:13:56.146Z,36.88
2023-04-06T03:14:57.650Z,31.33
2023-04-06T03:15:59.165Z,28.80
2023-04-06T03:17:01.316Z,34.58
2023-04-06T03:18:02.851Z,33.67
2023-04-06T03:19:04.356Z,36.05
2023-04-06T03:20:06.253Z,33.70
2023-04-06T03:21:07.725Z,38.03
2023-04-06T03:22:09.227Z,34.47
2023-04-06T03:23:10.712Z,27.63
2023-04-06T03:24:12.213Z,32.53
2023-04-06T03:25:13.774Z,37.92
2023-04-06T03:26:15.613Z,33.90
2023-04-06T03:27:17.148Z,36.90
2023-04-06T03:28:18.688Z,33.80
2023-04-06T03:29:20.317Z,34.22
2023-04-06T03:30:21.810Z,41.28
2023-04-06T03:31:23.413Z,37.33
2023-04-06T03:32:24.897Z,34.30
2023-04-06T03:33:29.312Z,36.45
2023-04-06T03:34:31.021Z,31.13
2023-04-06T03:35:32.510Z,46.78
2023-04-06T03:36:36.095Z,44.40
2023-04-06T03:37:37.673Z,44.40
2023-04-06T03:38:40.832Z,44.15
2023-04-06T03:39:42.963Z,44.30
2023-04-06T03:40:44.443Z,45.22
2023-04-06T03:41:45.922Z,37.25
2023-04-06T03:42:47.374Z,38.55
2023-04-06T03:43:48.929Z,34.83
2023-04-06T03:44:50.470Z,40.92
2023-04-06T03:45:51.981Z,32.63
2023-04-06T03:46:53.592Z,38.63
2023-04-06T03:47:55.230Z,43.85
2023-04-06T03:48:56.840Z,39.83
2023-04-06T03:49:58.268Z,37.33
2023-04-06T03:50:59.739Z,40.47
2023-04-06T03:52:02.526Z,41.38
2023-04-06T03:53:04.104Z,47.67
2023-04-06T03:54:05.760Z,50.70
2023-04-06T03:55:08.093Z,46.95
2023-04-06T03:56:09.680Z,43.58
2023-04-06T03:57:11.239Z,40.03
2023-04-06T03:58:12.689Z,41.80
2023-04-06T03:59:14.185Z,42.97
2023-04-06T04:00:16.292Z,48.97
2023-04-06T04:01:19.182Z,45.92
2023-04-06T04:02:20.857Z,43.40
2023-04-06T04:03:24.489Z,40.08
2023-04-06T04:04:26.083Z,38.13
2023-04-06T04:05:27.806Z,40.40
2023-04-06T04:06:29.349Z,40.88
2023-04-06T04:07:31.507Z,41.95
2023-04-06T04:09:34.390Z,36.47
2023-04-06T04:10:35.929Z,40.33
2023-04-06T04:11:37.469Z,48.53
2023-04-06T04:12:38.921Z,49.90
2023-04-06T04:13:40.379Z,45.55
2023-04-06T04:14:41.855Z,40.03
2023-04-06T04:15:43.437Z,35.80
2023-04-06T04:16:44.960Z,35.53
2023-04-06T04:17:47.931Z,39.67
2023-04-06T04:18:49.783Z,37.10
2023-04-06T04:19:51.254Z,32.80
2023-04-06T04:20:53.164Z,40.67
2023-04-06T04:21:54.674Z,35.65
2023-04-06T04:22:56.266Z,43.55
2023-04-06T04:23:57.841Z,44.22
2023-04-06T04:24:59.331Z,42.92
2023-04-06T04:26:00.843Z,47.45
2023-04-06T04:27:02.359Z,44.92
2023-04-06T04:28:03.954Z,48.00
2023-04-06T04:29:06.013Z,53.28
2023-04-06T04:31:09.300Z,45.65
2023-04-06T04:32:10.888Z,48.45
2023-04-06T04:33:12.459Z,51.40
2023-04-06T04:34:13.979Z,51.38
2023-04-06T04:35:15.524Z,46.58
2023-04-06T04:36:16.969Z,46.35
2023-04-06T04:37:18.465Z,47.72
2023-04-06T04:38:19.971Z,40.65
2023-04-06T04:39:21.475Z,38.97
2023-04-06T04:40:22.977Z,40.70
2023-04-06T04:41:24.471Z,41.90
2023-04-06T04:42:26.052Z,46.22
2023-04-06T04:43:27.600Z,49.47
2023-04-06T04:44:29.040Z,54.88
2023-04-06T04:45:30.720Z,49.90
2023-04-06T04:46:32.241Z,56.55
2023-04-06T04:47:33.718Z,52.38
2023-04-06T04:48:35.556Z,57.50
2023-04-06T04:49:37.119Z,53.83
2023-04-06T04:50:38.740Z,53.20
2023-04-06T04:51:40.226Z,55.20
2023-04-06T04:52:41.679Z,56.20
2023-04-06T04:53:43.155Z,57.85
2023-04-06T04:54:44.852Z,60.47
2023-04-06T04:55:46.317Z,68.20
2023-04-06T04:56:47.762Z,50.08
2023-04-06T04:57:49.245Z,59.95
2023-04-06T04:58:51.125Z,61.40
2023-04-06T04:59:52.618Z,63.35
2023-04-06T05:00:54.103Z,59.53
2023-04-06T05:01:56.048Z,54.17
2023-04-06T05:02:57.663Z,48.78
2023-04-06T05:03:59.267Z,53.70
2023-04-06T05:05:00.709Z,54.38
2023-04-06T05:06:02.803Z,51.38
2023-04-06T05:07:08.694Z,55.80
2023-04-06T05:08:10.479Z,56.65
2023-04-06T05:09:11.995Z,58.83
2023-04-06T05:10:13.612Z,63.70
2023-04-06T05:11:15.173Z,71.15
2023-04-06T05:12:16.771Z,78.35
2023-04-06T05:13:18.571Z,86.45
2023-04-06T05:14:20.082Z,87.00
2023-04-06T05:15:21.568Z,85.32
2023-04-06T05:16:23.363Z,85.70
2023-04-06T05:17:25.089Z,84.00
2023-04-06T05:18:27.166Z,88.57
2023-04-06T05:19:28.808Z,88.32
2023-04-06T05:20:30.489Z,90.18
2023-04-06T05:21:32.767Z,74.57
2023-04-06T05:22:34.261Z,74.43
2023-04-06T05:23:36.014Z,62.25
2023-04-06T05:24:37.661Z,60.10
2023-04-06T05:25:39.271Z,53.38
2023-04-06T05:26:40.819Z,48.80
2023-04-06T05:27:42.306Z,47.40
2023-04-06T05:28:45.329Z,44.25
2023-04-06T05:29:46.806Z,45.63
2023-04-06T05:30:48.359Z,42.55
2023-04-06T05:31:50.032Z,37.72
2023-04-06T05:32:51.727Z,37.88
2023-04-06T05:33:53.661Z,36.70
2023-04-06T05:34:55.164Z,40.10
2023-04-06T05:35:56.708Z,35.90
2023-04-06T05:36:58.186Z,37.83
2023-04-06T05:37:59.628Z,40.97
2023-04-06T05:39:01.194Z,38.92
2023-04-06T05:40:03.672Z,40.63
2023-04-06T05:41:05.196Z,48.15
2023-04-06T05:42:07.505Z,46.50
2023-04-06T05:43:09.264Z,53.53
2023-04-06T05:44:10.905Z,40.55
2023-04-06T05:45:17.621Z,58.83
2023-04-06T05:46:19.539Z,67.20
2023-04-06T05:47:21.172Z,64.25
2023-04-06T05:48:22.693Z,61.92
2023-04-06T05:49:24.166Z,57.55
2023-04-06T05:50:25.881Z,48.85
2023-04-06T05:51:28.193Z,43.50
2023-04-06T05:52:29.733Z,44.92
2023-04-06T05:53:31.220Z,42.63
2023-04-06T05:54:32.690Z,39.42
2023-04-06T05:55:34.192Z,46.75
2023-04-06T05:56:35.681Z,39.95
2023-04-06T05:57:37.192Z,35.85
2023-04-06T05:58:38.784Z,35.25
2023-04-06T05:59:40.350Z,47.42
2023-04-06T06:00:43.457Z,36.92
2023-04-06T06:01:45.023Z,40.67
2023-04-06T06:02:46.606Z,32.80
2023-04-06T06:03:48.160Z,27.77
2023-04-06T06:04:49.689Z,25.95
2023-04-06T06:05:51.333Z,19.33
2023-04-06T06:06:52.780Z,22.80
2023-04-06T06:07:54.284Z,29.83
2023-04-06T06:08:56.556Z,28.80
2023-04-06T06:09:59.162Z,29.98
2023-04-06T06:11:01.154Z,31.50
2023-04-06T06:12:02.651Z,26.95
2023-04-06T06:13:04.101Z,19.65
2023-04-06T06:14:05.897Z,21.67
2023-04-06T06:15:08.133Z,18.52
2023-04-06T06:16:09.759Z,18.67
2023-04-06T06:17:11.258Z,18.88
2023-04-06T06:18:12.733Z,19.33
2023-04-06T06:19:14.293Z,19.75
2023-04-06T06:20:16.263Z,18.05
2023-04-06T06:21:18.139Z,20.88
2023-04-06T06:22:19.759Z,18.70
2023-04-06T06:23:21.228Z,18.55
2023-04-06T06:24:22.793Z,15.70
2023-04-06T06:25:25.049Z,16.38
2023-04-06T06:26:27.079Z,17.25
2023-04-06T06:27:28.537Z,17.60
2023-04-06T06:28:30.013Z,18.58
2023-04-06T06:29:31.549Z,15.70
2023-04-06T06:30:33.082Z,15.75
2023-04-06T06:31:34.632Z,17.30
2023-04-06T06:32:36.273Z,17.83
2023-04-06T06:33:37.819Z,24.45
2023-04-06T06:34:39.316Z,17.95
2023-04-06T06:35:40.785Z,12.10
2023-04-06T06:36:42.417Z,14.80
2023-04-06T06:37:44.172Z,15.15
2023-04-06T06:38:46.010Z,13.50
2023-04-06T06:39:47.486Z,13.60
2023-04-06T06:40:49.029Z,16.90
2023-04-06T06:41:50.500Z,16.58
2023-04-06T06:42:52.423Z,13.23
2023-04-06T06:43:54.069Z,12.45
2023-04-06T06:44:56.015Z,13.40
2023-04-06T06:45:57.645Z,14.73
2023-04-06T06:46:59.356Z,12.05
2023-04-06T06:48:00.952Z,12.15
2023-04-06T06:49:02.495Z,11.02
2023-04-06T06:50:04.274Z,12.57
2023-04-06T06:51:06.096Z,12.82
2023-04-06T06:52:07.652Z,12.40
2023-04-06T06:53:09.157Z,14.25
2023-04-06T06:54:10.944Z,11.57
2023-04-06T06:55:12.797Z,10.85
2023-04-06T06:56:14.293Z,13.80
2023-04-06T06:57:15.785Z,11.02
2023-04-06T06:58:23.314Z,12.68
2023-04-06T06:59:24.920Z,14.05
2023-04-06T07:00:26.493Z,13.82
2023-04-06T07:01:28.014Z,11.50
2023-04-06T07:02:29.614Z,14.35
2023-04-06T07:03:31.749Z,12.98
2023-04-06T07:05:34.731Z,13.05
2023-04-06T07:06:36.815Z,14.48
2023-04-06T07:08:39.821Z,13.10
2023-04-06T07:09:41.326Z,10.45
2023-04-06T07:10:43.016Z,13.05
2023-04-06T07:11:44.526Z,10.30
2023-04-06T07:12:46.981Z,11.63
2023-04-06T07:13:48.428Z,12.30
2023-04-06T07:14:49.888Z,11.20
2023-04-06T07:15:51.773Z,11.80
2023-04-06T07:16:53.425Z,11.57
2023-04-06T07:17:55.763Z,12.57
2023-04-06T07:18:57.414Z,11.65
2023-04-06T07:19:58.878Z,11.25
2023-04-06T07:21:00.319Z,12.95
2023-04-06T07:22:02.007Z,11.30
2023-04-06T07:23:03.753Z,13.35
2023-04-06T07:24:05.325Z,13.27
2023-04-06T07:25:07.155Z,10.57
2023-04-06T07:26:08.892Z,10.15
2023-04-06T07:27:10.515Z,10.65
2023-04-06T07:28:12.047Z,13.55
2023-04-06T07:29:13.706Z,12.00
2023-04-06T07:30:15.381Z,11.88
2023-04-06T07:31:16.838Z,9.98
2023-04-06T07:32:18.389Z,11.27
2023-04-06T07:33:19.913Z,9.57
2023-04-06T07:34:21.714Z,10.40
2023-04-06T07:35:27.785Z,9.55
2023-04-06T07:36:29.320Z,10.98
2023-04-06T07:37:30.852Z,10.57
2023-04-06T07:38:32.338Z,10.05
2023-04-06T07:39:33.826Z,9.63
2023-04-06T07:40:35.650Z,10.10
2023-04-06T07:41:37.517Z,9.30
2023-04-06T07:42:39.054Z,8.52
2023-04-06T07:43:40.587Z,11.73
2023-04-06T07:44:42.203Z,10.48
2023-04-06T07:45:43.726Z,12.25
2023-04-06T07:46:45.340Z,9.90
2023-04-06T07:47:47.127Z,11.10
2023-04-06T07:48:48.687Z,8.52
2023-04-06T07:49:50.229Z,13.02
2023-04-06T07:50:51.992Z,9.98
2023-04-06T07:51:53.439Z,12.88
2023-04-06T07:52:55.028Z,9.23
2023-04-06T07:53:56.628Z,10.55
2023-04-06T07:54:58.876Z,10.65
2023-04-06T07:56:00.610Z,8.77
2023-04-06T07:57:02.065Z,9.30
2023-04-06T07:58:03.533Z,9.15
2023-04-06T07:59:05.015Z,9.98
2023-04-06T08:00:07.249Z,9.05
2023-04-06T08:01:08.722Z,8.68
2023-04-06T08:02:10.373Z,8.68
2023-04-06T08:03:12.135Z,7.82
2023-04-06T08:04:13.971Z,9.00
2023-04-06T08:05:15.600Z,9.52
2023-04-06T08:06:17.811Z,11.30
2023-04-06T08:07:19.323Z,10.63
2023-04-06T08:08:22.143Z,9.27
2023-04-06T08:09:23.640Z,10.80
2023-04-06T08:10:25.169Z,11.32
2023-04-06T08:11:27.642Z,8.48
2023-04-06T08:12:29.158Z,8.98
2023-04-06T08:13:30.676Z,8.20
2023-04-06T08:14:32.224Z,9.98
2023-04-06T08:15:33.729Z,8.00
2023-04-06T08:16:35.242Z,7.55
2023-04-06T08:17:36.769Z,7.60
2023-04-06T08:18:38.258Z,9.25
2023-04-06T08:19:39.782Z,7.90
2023-04-06T08:20:41.597Z,10.65
2023-04-06T08:21:43.492Z,7.85
2023-04-06T08:23:47.202Z,7.72
2023-04-06T08:25:50.276Z,8.05
2023-04-06T08:26:52.324Z,7.40
2023-04-06T08:27:53.993Z,7.15
2023-04-06T08:28:55.490Z,6.78
2023-04-06T08:29:57.010Z,6.13
2023-04-06T08:30:58.518Z,6.18
2023-04-06T08:32:00.153Z,7.85
2023-04-06T08:33:01.744Z,8.90
2023-04-06T08:34:05.712Z,5.90
2023-04-06T08:35:07.823Z,7.78
2023-04-06T08:36:11.523Z,6.63
2023-04-06T08:37:13.019Z,6.05
2023-04-06T08:38:14.499Z,9.30
2023-04-06T08:39:15.926Z,7.57
2023-04-06T08:40:17.474Z,7.03
2023-04-06T08:41:19.182Z,9.65
2023-04-06T08:42:22.610Z,6.50
2023-04-06T08:43:25.714Z,7.32
2023-04-06T08:44:28.063Z,6.22
2023-04-06T08:45:29.827Z,8.13
2023-04-06T08:46:32.225Z,6.10
2023-04-06T08:47:35.381Z,8.07
2023-04-06T08:48:37.274Z,7.03
2023-04-06T08:49:42.019Z,5.18
2023-04-06T08:50:43.945Z,9.23
2023-04-06T08:51:45.668Z,6.75
2023-04-06T08:52:48.585Z,6.75
2023-04-06T08:53:50.965Z,5.85
2023-04-06T08:54:52.459Z,5.32
2023-04-06T08:55:54.523Z,5.55
2023-04-06T08:56:57.941Z,4.57
2023-04-06T08:58:00.548Z,5.38
2023-04-06T08:59:03.734Z,6.32
2023-04-06T09:00:07.466Z,5.70
2023-04-06T09:01:12.263Z,5.32
2023-04-06T09:02:20.120Z,5.55
2023-04-06T09:03:22.904Z,7.13
2023-04-06T09:04:24.514Z,7.65
2023-04-06T09:05:26.679Z,8.02
2023-04-06T09:06:28.589Z,6.10
2023-04-06T09:07:30.401Z,7.55
2023-04-06T09:08:31.861Z,6.80
2023-04-06T09:09:33.315Z,7.20
2023-04-06T09:10:35.265Z,5.93
2023-04-06T09:12:51.414Z,5.60
2023-04-06T09:14:57.564Z,6.85
2023-04-06T09:16:03.700Z,4.47
2023-04-06T09:17:07.377Z,5.05
2023-04-06T09:18:09.447Z,5.13
2023-04-06T09:19:11.395Z,6.78
2023-04-06T09:21:18.125Z,9.20
2023-04-06T09:22:19.982Z,4.65
2023-04-06T09:23:21.549Z,3.95
2023-04-06T09:24:27.044Z,4.97
2023-04-06T09:25:28.762Z,5.53
2023-04-06T09:26:30.813Z,7.85
2023-04-06T09:27:34.058Z,4.85
2023-04-06T09:28:54.224Z,5.35
2023-04-06T09:30:14.498Z,5.15
2023-04-06T09:31:18.052Z,4.20
2023-04-06T09:32:20.095Z,3.92
2023-04-06T09:33:25.016Z,5.15
2023-04-06T09:34:26.470Z,5.97
2023-04-06T09:35:28.358Z,5.47
2023-04-06T09:37:34.587Z,4.75
2023-04-06T09:38:38.264Z,5.35
2023-04-06T09:39:39.730Z,5.00
2023-04-06T09:41:00.671Z,3.60
2023-04-06T09:42:03.593Z,4.80
2023-04-06T09:43:07.957Z,3.95
2023-04-06T09:44:13.248Z,5.10
2023-04-06T09:45:15.204Z,4.10
2023-04-06T09:47:20.809Z,3.97
2023-04-06T09:48:23.229Z,4.75
2023-04-06T09:49:27.968Z,6.68
2023-04-06T09:50:30.450Z,5.47
2023-04-06T09:51:39.812Z,5.90
2023-04-06T09:52:47.228Z,7.88
2023-04-06T09:53:53.051Z,4.40
2023-04-06T09:54:59.923Z,6.28
2023-04-06T09:56:04.090Z,5.95
2023-04-06T09:57:11.277Z,4.57
2023-04-06T09:58:20.196Z,5.80
2023-04-06T09:59:32.585Z,9.68
2023-04-06T10:00:44.072Z,7.32
2023-04-06T10:01:48.992Z,4.22
2023-04-06T10:02:59.126Z,5.13
2023-04-06T10:04:27.689Z,4.47
2023-04-06T10:05:55.575Z,5.28
2023-04-06T10:06:58.317Z,4.22
2023-04-06T10:08:06.277Z,9.18
2023-04-06T10:10:12.605Z,4.65
2023-04-06T10:11:14.383Z,4.63
2023-04-06T10:12:16.280Z,3.78
2023-04-06T10:14:20.262Z,4.65
2023-04-06T10:15:23.096Z,6.03
2023-04-06T10:16:26.636Z,4.20
2023-04-06T10:17:28.212Z,4.78
2023-04-06T10:18:30.122Z,5.07
2023-04-06T10:19:50.418Z,4.88
2023-04-06T10:21:01.996Z,4.97
2023-04-06T10:22:06.179Z,5.32
2023-04-06T10:23:10.913Z,6.00
2023-04-06T10:24:13.245Z,4.68
2023-04-06T10:25:14.840Z,4.18
2023-04-06T10:26:18.809Z,5.10
2023-04-06T10:27:29.595Z,5.13
2023-04-06T10:28:36.810Z,4.93
2023-04-06T10:29:49.825Z,4.82
2023-04-06T10:30:58.180Z,4.80
2023-04-06T10:31:59.722Z,6.72
2023-04-06T10:33:01.827Z,5.07
2023-04-06T10:34:03.952Z,4.88
2023-04-06T10:35:14.689Z,5.18
2023-04-06T10:36:23.550Z,4.00
2023-04-06T10:37:25.317Z,3.63
2023-04-06T10:38:41.317Z,6.22
2023-04-06T10:39:56.326Z,6.28
2023-04-06T10:41:05.220Z,6.57
2023-04-06T10:42:07.782Z,7.28
2023-04-06T10:43:10.291Z,4.82
2023-04-06T10:44:22.875Z,5.07
2023-04-06T10:45:26.766Z,7.32
2023-04-06T10:46:31.678Z,6.15
2023-04-06T10:47:41.066Z,7.38
2023-04-06T10:48:44.988Z,5.60
2023-04-06T10:49:46.617Z,5.32
2023-04-06T10:50:53.295Z,4.82
2023-04-06T10:51:56.387Z,6.65
2023-04-06T10:53:01.851Z,6.47
2023-04-06T10:54:04.922Z,4.22
2023-04-06T10:55:09.667Z,5.75
2023-04-06T10:56:12.974Z,5.18
2023-04-06T10:57:14.468Z,5.38
2023-04-06T10:58:16.014Z,4.65
2023-04-06T10:59:22.947Z,6.40
2023-04-06T11:00:26.077Z,5.13
2023-04-06T11:01:30.506Z,4.90
2023-04-06T11:02:33.066Z,6.75
2023-04-06T11:03:45.186Z,7.18
2023-04-06T11:04:55.398Z,5.60
2023-04-06T11:05:56.949Z,6.30
2023-04-06T11:06:58.937Z,4.70
2023-04-06T11:09:02.062Z,4.22
2023-04-06T11:10:16.618Z,4.75
2023-04-06T11:11:21.676Z,5.28
2023-04-06T11:12:28.034Z,4.68
2023-04-06T11:13:40.390Z,3.88
2023-04-06T11:14:42.642Z,5.88
2023-04-06T11:15:44.285Z,5.72
2023-04-06T11:16:49.266Z,5.18
2023-04-06T11:17:50.847Z,5.32
2023-04-06T11:18:59.119Z,4.40
2023-04-06T11:20:00.911Z,4.93
2023-04-06T11:21:02.424Z,6.57
2023-04-06T11:22:08.572Z,6.85
2023-04-06T11:23:10.258Z,5.53
2023-04-06T11:24:16.108Z,4.80
2023-04-06T11:25:18.119Z,5.13
2023-04-06T11:26:19.823Z,6.57
2023-04-06T11:27:21.756Z,5.63
2023-04-06T11:29:29.257Z,4.50
2023-04-06T11:30:31.565Z,4.50
2023-04-06T11:31:38.193Z,5.28
2023-04-06T11:32:46.816Z,5.75
2023-04-06T11:33:56.081Z,4.65
2023-04-06T11:34:59.098Z,4.82
2023-04-06T11:36:00.833Z,4.90
2023-04-06T11:37:10.530Z,5.25
2023-04-06T11:38:12.037Z,6.53
2023-04-06T11:39:14.858Z,4.22
2023-04-06T11:40:21.305Z,4.88
2023-04-06T11:41:26.283Z,4.53
2023-04-06T11:42:30.568Z,4.65
2023-04-06T11:43:32.647Z,7.15
2023-04-06T11:44:43.602Z,4.57
2023-04-06T11:45:45.328Z,6.30
2023-04-06T11:46:54.341Z,6.55
2023-04-06T11:47:58.560Z,5.40
2023-04-06T11:49:03.386Z,4.13
2023-04-06T11:50:14.459Z,4.70
2023-04-06T11:51:24.073Z,5.55
2023-04-06T11:52:28.216Z,4.43
2023-04-06T11:53:30.614Z,4.95
2023-04-06T11:54:38.103Z,4.95
2023-04-06T11:55:40.091Z,4.28
2023-04-06T11:56:41.714Z,5.97
2023-04-06T11:57:43.874Z,5.47
2023-04-06T11:58:45.352Z,5.40
2023-04-06T11:59:47.410Z,6.80
2023-04-06T12:00:48.999Z,6.45
2023-04-06T12:01:50.489Z,4.97
2023-04-06T12:02:52.388Z,6.25
2023-04-06T12:04:56.009Z,4.60
2023-04-06T12:05:58.802Z,7.35
2023-04-06T12:07:01.418Z,5.88
2023-04-06T12:08:03.760Z,5.28
2023-04-06T12:09:05.534Z,6.07
2023-04-06T12:10:07.456Z,5.53
2023-04-06T12:12:10.432Z,4.57
2023-04-06T12:13:11.892Z,6.25
2023-04-06T12:14:14.174Z,5.63
2023-04-06T12:15:15.668Z,6.38
2023-04-06T12:16:17.281Z,5.85
2023-04-06T12:17:19.858Z,4.93
2023-04-06T12:18:21.366Z,7.10
2023-04-06T12:19:26.477Z,6.07
2023-04-06T12:20:28.398Z,5.32
2023-04-06T12:21:31.939Z,4.60
2023-04-06T12:22:33.473Z,5.45
2023-04-06T12:23:34.934Z,7.55
2023-04-06T12:24:36.469Z,4.55
2023-04-06T12:25:40.706Z,5.60
2023-04-06T12:26:43.514Z,6.78
2023-04-06T12:27:45.075Z,5.32
2023-04-06T12:28:46.546Z,6.95
2023-04-06T12:29:48.581Z,6.13
2023-04-06T12:30:51.009Z,6.90
2023-04-06T12:31:53.892Z,6.00
2023-04-06T12:32:55.694Z,6.18
2023-04-06T12:33:57.176Z,6.95
2023-04-06T12:34:58.665Z,6.45
2023-04-06T12:36:00.248Z,8.15
2023-04-06T12:37:01.777Z,5.72
2023-04-06T12:38:03.427Z,5.90
2023-04-06T12:39:05.797Z,6.45
2023-04-06T12:40:08.050Z,5.63
2023-04-06T12:41:09.567Z,4.95
2023-04-06T12:42:11.724Z,5.32
2023-04-06T12:43:14.076Z,5.45
2023-04-06T12:44:15.593Z,5.22
2023-04-06T12:45:17.236Z,6.07
2023-04-06T12:46:18.808Z,7.43
2023-04-06T12:47:20.315Z,5.47
2023-04-06T12:48:22.230Z,5.43
2023-04-06T12:50:25.387Z,7.00
2023-04-06T12:51:30.437Z,6.25
2023-04-06T12:52:32.946Z,5.30
2023-04-06T12:53:35.789Z,5.00
2023-04-06T12:54:37.225Z,7.00
2023-04-06T12:55:38.787Z,6.90
2023-04-06T12:56:40.543Z,6.35
2023-04-06T12:57:42.519Z,5.70
2023-04-06T12:59:46.125Z,8.35
2023-04-06T13:01:49.972Z,7.05
2023-04-06T13:02:51.643Z,6.38
2023-04-06T13:03:53.190Z,5.97
2023-04-06T13:04:54.661Z,6.45
2023-04-06T13:05:56.291Z,5.32
2023-04-06T13:06:57.798Z,6.55
2023-04-06T13:07:59.260Z,5.13
2023-04-06T13:09:01.326Z,7.55
2023-04-06T13:10:02.968Z,7.90
2023-04-06T13:11:04.601Z,5.97
2023-04-06T13:12:06.398Z,5.20
2023-04-06T13:13:07.964Z,5.97
2023-04-06T13:14:09.696Z,5.57
2023-04-06T13:15:11.586Z,5.65
2023-04-06T13:17:14.508Z,5.50
2023-04-06T13:18:16.943Z,5.28
2023-04-06T13:19:19.206Z,5.32
2023-04-06T13:20:25.374Z,5.78
2023-04-06T13:21:27.286Z,5.13
2023-04-06T13:23:30.298Z,5.78
2023-04-06T13:24:31.785Z,6.53
2023-04-06T13:25:33.714Z,6.75
2023-04-06T13:27:36.971Z,5.95
2023-04-06T13:28:39.737Z,8.10
2023-04-06T13:29:41.423Z,7.28
2023-04-06T13:30:42.884Z,5.90
2023-04-06T13:31:44.432Z,5.70
2023-04-06T13:32:46.119Z,5.30
2023-04-06T13:33:47.651Z,7.10
2023-04-06T13:34:50.014Z,7.97
2023-04-06T13:35:51.603Z,4.88
2023-04-06T13:36:53.160Z,7.20
2023-04-06T13:37:54.617Z,6.05
2023-04-06T13:38:56.520Z,5.38
2023-04-06T13:40:59.551Z,6.22
2023-04-06T13:42:02.807Z,5.57
2023-04-06T13:43:05.415Z,6.22
2023-04-06T13:44:07.196Z,6.47
2023-04-06T13:45:09.167Z,10.85
2023-04-06T13:47:13.321Z,6.20
2023-04-06T13:48:14.860Z,5.65
2023-04-06T13:49:16.537Z,6.10
2023-04-06T13:50:18.015Z,5.78
2023-04-06T13:51:19.638Z,8.75
2023-04-06T13:52:21.284Z,6.07
2023-04-06T13:53:22.888Z,5.63
2023-04-06T13:54:24.425Z,5.55
2023-04-06T13:55:26.018Z,6.55
2023-04-06T13:56:27.461Z,6.88
2023-04-06T13:57:30.618Z,5.72
2023-04-06T13:58:32.122Z,6.28
2023-04-06T13:59:37.092Z,4.80
2023-04-06T14:00:39.045Z,5.30
2023-04-06T14:02:42.641Z,6.35
2023-04-06T14:04:48.131Z,5.32
2023-04-06T14:05:49.558Z,5.28
2023-04-06T14:06:51.025Z,8.88